sensor_id;sensor_type;location;lat;lon;timestamp;P1;durP1;ratioP1;P2;durP2;ratioP2
78290;SDS011;67543;45.494;9.100;2023-05-10T05:40:52;10.07;;;6.07;;
78290;SDS011;67543;45.494;9.100;2023-05-10T05:43:17;7.78;;;5.28;;
78290;SDS011;67543;45.494;9.100;2023-05-10T05:45:42;11.10;;;5.93;;
78290;SDS011;67543;45.494;9.100;2023-05-10T05:48:11;7.88;;;4.85;;
78290;SDS011;67543;45.494;9.100;2023-05-10T05:50:36;7.28;;;5.00;;
78290;SDS011;67543;45.494;9.100;2023-05-10T05:53:01;7.95;;;5.50;;
78290;SDS011;67543;45.494;9.100;2023-05-10T05:55:27;8.60;;;5.45;;
78290;SDS011;67543;45.494;9.100;2023-05-10T05:57:52;9.85;;;6.97;;
78290;SDS011;67543;45.494;9.100;2023-05-10T06:00:18;10.35;;;6.30;;
78290;SDS011;67543;45.494;9.100;2023-05-10T06:02:44;8.32;;;5.32;;
78290;SDS011;67543;45.494;9.100;2023-05-10T06:05:09;8.95;;;5.70;;
78290;SDS011;67543;45.494;9.100;2023-05-10T06:07:35;8.15;;;4.78;;
78290;SDS011;67543;45.494;9.100;2023-05-10T06:10:00;9.52;;;5.95;;
78290;SDS011;67543;45.494;9.100;2023-05-10T06:12:26;8.80;;;6.32;;
78290;SDS011;67543;45.494;9.100;2023-05-10T06:14:51;8.70;;;4.97;;
78290;SDS011;67543;45.494;9.100;2023-05-10T06:17:16;7.57;;;5.45;;
78290;SDS011;67543;45.494;9.100;2023-05-10T06:19:42;7.45;;;4.82;;
78290;SDS011;67543;45.494;9.100;2023-05-10T06:22:07;6.95;;;4.63;;
78290;SDS011;67543;45.494;9.100;2023-05-10T06:24:32;8.20;;;5.30;;
78290;SDS011;67543;45.494;9.100;2023-05-10T06:26:57;9.90;;;4.80;;
78290;SDS011;67543;45.494;9.100;2023-05-10T06:29:25;6.80;;;5.60;;
78290;SDS011;67543;45.494;9.100;2023-05-10T06:31:53;6.72;;;5.10;;
78290;SDS011;67543;45.494;9.100;2023-05-10T06:34:19;6.60;;;4.90;;
78290;SDS011;67543;45.494;9.100;2023-05-10T06:36:44;7.22;;;4.63;;
78290;SDS011;67543;45.494;9.100;2023-05-10T06:39:10;10.07;;;5.35;;
78290;SDS011;67543;45.494;9.100;2023-05-10T06:41:37;7.35;;;5.03;;
78290;SDS011;67543;45.494;9.100;2023-05-10T06:44:02;7.25;;;5.07;;
78290;SDS011;67543;45.494;9.100;2023-05-10T06:46:28;6.63;;;4.97;;
78290;SDS011;67543;45.494;9.100;2023-05-10T06:48:54;6.13;;;4.85;;
78290;SDS011;67543;45.494;9.100;2023-05-10T06:51:19;6.15;;;4.03;;
78290;SDS011;67543;45.494;9.100;2023-05-10T06:53:46;7.28;;;4.72;;
78290;SDS011;67543;45.494;9.100;2023-05-10T06:56:11;6.93;;;4.68;;
78290;SDS011;67543;45.494;9.100;2023-05-10T06:58:36;6.68;;;4.78;;
78290;SDS011;67543;45.494;9.100;2023-05-10T07:01:03;5.68;;;3.83;;
78290;SDS011;67543;45.494;9.100;2023-05-10T07:03:30;6.53;;;3.97;;
78290;SDS011;67543;45.494;9.100;2023-05-10T07:05:59;6.20;;;4.45;;
78290;SDS011;67543;45.494;9.100;2023-05-10T07:08:28;8.70;;;4.55;;
78290;SDS011;67543;45.494;9.100;2023-05-10T07:10:58;7.38;;;4.30;;
78290;SDS011;67543;45.494;9.100;2023-05-10T07:13:25;6.35;;;4.30;;
78290;SDS011;67543;45.494;9.100;2023-05-10T07:15:50;5.72;;;4.00;;
78290;SDS011;67543;45.494;9.100;2023-05-10T07:18:16;6.38;;;4.15;;
78290;SDS011;67543;45.494;9.100;2023-05-10T07:20:41;6.38;;;4.63;;
78290;SDS011;67543;45.494;9.100;2023-05-10T07:23:06;8.85;;;4.38;;
78290;SDS011;67543;45.494;9.100;2023-05-10T07:25:32;5.77;;;4.67;;
78290;SDS011;67543;45.494;9.100;2023-05-10T07:27:57;6.33;;;3.90;;
78290;SDS011;67543;45.494;9.100;2023-05-10T07:30:22;5.22;;;4.22;;
78290;SDS011;67543;45.494;9.100;2023-05-10T07:32:48;5.07;;;4.07;;
78290;SDS011;67543;45.494;9.100;2023-05-10T07:35:13;6.40;;;3.97;;
78290;SDS011;67543;45.494;9.100;2023-05-10T07:37:39;5.50;;;3.97;;
78290;SDS011;67543;45.494;9.100;2023-05-10T07:40:04;5.72;;;3.70;;
78290;SDS011;67543;45.494;9.100;2023-05-10T07:42:30;5.70;;;4.38;;
78290;SDS011;67543;45.494;9.100;2023-05-10T07:44:55;6.78;;;4.25;;
78290;SDS011;67543;45.494;9.100;2023-05-10T07:47:21;12.80;;;4.57;;
78290;SDS011;67543;45.494;9.100;2023-05-10T07:49:46;7.07;;;4.57;;
78290;SDS011;67543;45.494;9.100;2023-05-10T07:52:11;5.70;;;4.50;;
78290;SDS011;67543;45.494;9.100;2023-05-10T07:54:37;8.10;;;4.60;;
78290;SDS011;67543;45.494;9.100;2023-05-10T07:57:02;5.97;;;4.60;;
78290;SDS011;67543;45.494;9.100;2023-05-10T07:59:28;6.60;;;4.53;;
78290;SDS011;67543;45.494;9.100;2023-05-10T08:01:53;7.85;;;4.50;;
78290;SDS011;67543;45.494;9.100;2023-05-10T08:04:19;10.25;;;4.40;;
78290;SDS011;67543;45.494;9.100;2023-05-10T08:06:44;6.60;;;4.07;;
78290;SDS011;67543;45.494;9.100;2023-05-10T08:09:09;5.83;;;4.63;;
78290;SDS011;67543;45.494;9.100;2023-05-10T08:11:35;8.00;;;4.10;;
78290;SDS011;67543;45.494;9.100;2023-05-10T08:14:01;5.57;;;4.30;;
78290;SDS011;67543;45.494;9.100;2023-05-10T08:16:26;5.43;;;4.35;;
78290;SDS011;67543;45.494;9.100;2023-05-10T08:18:52;5.25;;;3.90;;
78290;SDS011;67543;45.494;9.100;2023-05-10T08:21:20;5.53;;;4.47;;
78290;SDS011;67543;45.494;9.100;2023-05-10T08:23:45;6.00;;;4.13;;
78290;SDS011;67543;45.494;9.100;2023-05-10T08:26:10;8.30;;;5.05;;
78290;SDS011;67543;45.494;9.100;2023-05-10T08:28:36;5.28;;;4.15;;
78290;SDS011;67543;45.494;9.100;2023-05-10T08:31:01;5.80;;;4.55;;
78290;SDS011;67543;45.494;9.100;2023-05-10T08:33:26;7.22;;;4.28;;
78290;SDS011;67543;45.494;9.100;2023-05-10T08:35:52;5.05;;;4.10;;
78290;SDS011;67543;45.494;9.100;2023-05-10T08:38:17;5.35;;;4.03;;
78290;SDS011;67543;45.494;9.100;2023-05-10T08:40:43;5.63;;;3.90;;
78290;SDS011;67543;45.494;9.100;2023-05-10T08:43:09;6.82;;;4.13;;
78290;SDS011;67543;45.494;9.100;2023-05-10T08:45:39;5.93;;;4.30;;
78290;SDS011;67543;45.494;9.100;2023-05-10T08:48:10;5.63;;;4.00;;
78290;SDS011;67543;45.494;9.100;2023-05-10T08:50:36;5.85;;;4.43;;
78290;SDS011;67543;45.494;9.100;2023-05-10T08:53:04;4.90;;;3.88;;
78290;SDS011;67543;45.494;9.100;2023-05-10T08:55:32;5.78;;;4.18;;
78290;SDS011;67543;45.494;9.100;2023-05-10T08:57:58;6.38;;;4.25;;
78290;SDS011;67543;45.494;9.100;2023-05-10T09:00:25;5.57;;;4.47;;
78290;SDS011;67543;45.494;9.100;2023-05-10T09:02:50;5.18;;;3.58;;
78290;SDS011;67543;45.494;9.100;2023-05-10T09:05:15;5.28;;;4.03;;
78290;SDS011;67543;45.494;9.100;2023-05-10T09:07:42;5.43;;;3.92;;
78290;SDS011;67543;45.494;9.100;2023-05-10T09:10:08;5.78;;;4.30;;
78290;SDS011;67543;45.494;9.100;2023-05-10T09:12:33;6.75;;;4.03;;
78290;SDS011;67543;45.494;9.100;2023-05-10T09:15:00;6.38;;;4.05;;
78290;SDS011;67543;45.494;9.100;2023-05-10T09:17:25;5.28;;;4.15;;
78290;SDS011;67543;45.494;9.100;2023-05-10T09:19:56;5.28;;;3.80;;
78290;SDS011;67543;45.494;9.100;2023-05-10T09:22:23;5.55;;;3.70;;
78290;SDS011;67543;45.494;9.100;2023-05-10T09:25:02;5.90;;;4.38;;
78290;SDS011;67543;45.494;9.100;2023-05-10T09:27:39;5.65;;;4.03;;
78290;SDS011;67543;45.494;9.100;2023-05-10T09:30:05;4.75;;;3.67;;
78290;SDS011;67543;45.494;9.100;2023-05-10T09:32:41;4.95;;;3.88;;
78290;SDS011;67543;45.494;9.100;2023-05-10T09:35:13;5.95;;;4.28;;
78290;SDS011;67543;45.494;9.100;2023-05-10T09:37:40;4.72;;;3.47;;
78290;SDS011;67543;45.494;9.100;2023-05-10T09:40:11;5.10;;;3.63;;
78290;SDS011;67543;45.494;9.100;2023-05-10T09:42:37;5.65;;;3.83;;
78290;SDS011;67543;45.494;9.100;2023-05-10T09:45:03;6.30;;;3.38;;
78290;SDS011;67543;45.494;9.100;2023-05-10T09:47:32;7.35;;;3.70;;
78290;SDS011;67543;45.494;9.100;2023-05-10T09:49:58;4.70;;;3.83;;
78290;SDS011;67543;45.494;9.100;2023-05-10T09:52:28;4.97;;;3.25;;
78290;SDS011;67543;45.494;9.100;2023-05-10T09:54:54;4.70;;;3.60;;
78290;SDS011;67543;45.494;9.100;2023-05-10T09:57:23;5.15;;;3.63;;
78290;SDS011;67543;45.494;9.100;2023-05-10T09:59:49;5.32;;;4.32;;
78290;SDS011;67543;45.494;9.100;2023-05-10T10:02:15;5.70;;;3.67;;
78290;SDS011;67543;45.494;9.100;2023-05-10T10:04:42;6.78;;;3.90;;
78290;SDS011;67543;45.494;9.100;2023-05-10T10:07:08;9.23;;;3.55;;
78290;SDS011;67543;45.494;9.100;2023-05-10T10:09:34;6.15;;;3.70;;
78290;SDS011;67543;45.494;9.100;2023-05-10T10:12:00;4.75;;;3.78;;
78290;SDS011;67543;45.494;9.100;2023-05-10T10:14:26;8.90;;;5.28;;
78290;SDS011;67543;45.494;9.100;2023-05-10T10:16:52;5.25;;;4.65;;
78290;SDS011;67543;45.494;9.100;2023-05-10T10:19:18;7.55;;;4.57;;
78290;SDS011;67543;45.494;9.100;2023-05-10T10:21:44;7.03;;;4.47;;
78290;SDS011;67543;45.494;9.100;2023-05-10T10:24:10;5.70;;;4.10;;
78290;SDS011;67543;45.494;9.100;2023-05-10T10:26:35;5.18;;;3.67;;
78290;SDS011;67543;45.494;9.100;2023-05-10T10:29:12;5.72;;;3.97;;
78290;SDS011;67543;45.494;9.100;2023-05-10T10:31:48;4.85;;;4.05;;
78290;SDS011;67543;45.494;9.100;2023-05-10T10:34:29;12.38;;;3.90;;
78290;SDS011;67543;45.494;9.100;2023-05-10T10:36:55;4.75;;;3.50;;
78290;SDS011;67543;45.494;9.100;2023-05-10T10:39:21;6.18;;;3.70;;
78290;SDS011;67543;45.494;9.100;2023-05-10T10:41:54;5.60;;;3.75;;
78290;SDS011;67543;45.494;9.100;2023-05-10T10:50:02;6.75;;;4.05;;
78290;SDS011;67543;45.494;9.100;2023-05-10T10:52:30;5.90;;;4.38;;
78290;SDS011;67543;45.494;9.100;2023-05-10T10:55:17;6.57;;;4.65;;
78290;SDS011;67543;45.494;9.100;2023-05-10T10:57:50;5.25;;;4.57;;
78290;SDS011;67543;45.494;9.100;2023-05-10T11:00:29;6.45;;;4.38;;
78290;SDS011;67543;45.494;9.100;2023-05-10T11:03:10;4.32;;;3.65;;
78290;SDS011;67543;45.494;9.100;2023-05-10T11:05:46;6.40;;;4.68;;
78290;SDS011;67543;45.494;9.100;2023-05-10T11:10:50;11.85;;;6.40;;
78290;SDS011;67543;45.494;9.100;2023-05-10T11:13:21;7.60;;;4.85;;
78290;SDS011;67543;45.494;9.100;2023-05-10T11:15:52;9.48;;;5.15;;
78290;SDS011;67543;45.494;9.100;2023-05-10T11:18:19;8.60;;;5.18;;
78290;SDS011;67543;45.494;9.100;2023-05-10T11:20:52;9.52;;;4.97;;
78290;SDS011;67543;45.494;9.100;2023-05-10T11:23:20;6.25;;;4.25;;
78290;SDS011;67543;45.494;9.100;2023-05-10T11:25:46;7.60;;;4.85;;
78290;SDS011;67543;45.494;9.100;2023-05-10T11:28:13;6.28;;;4.97;;
78290;SDS011;67543;45.494;9.100;2023-05-10T11:30:38;6.13;;;4.97;;
78290;SDS011;67543;45.494;9.100;2023-05-10T11:33:05;7.13;;;4.28;;
78290;SDS011;67543;45.494;9.100;2023-05-10T11:35:31;5.38;;;4.47;;
78290;SDS011;67543;45.494;9.100;2023-05-10T11:38:02;6.32;;;4.90;;
78290;SDS011;67543;45.494;9.100;2023-05-10T11:40:27;8.10;;;5.70;;
78290;SDS011;67543;45.494;9.100;2023-05-10T11:42:55;6.13;;;4.75;;
78290;SDS011;67543;45.494;9.100;2023-05-10T11:45:23;5.30;;;4.53;;
78290;SDS011;67543;45.494;9.100;2023-05-10T11:47:48;7.13;;;4.78;;
78290;SDS011;67543;45.494;9.100;2023-05-10T11:50:14;7.28;;;5.63;;
78290;SDS011;67543;45.494;9.100;2023-05-10T11:52:39;8.68;;;5.78;;
78290;SDS011;67543;45.494;9.100;2023-05-10T11:55:05;6.30;;;5.10;;
78290;SDS011;67543;45.494;9.100;2023-05-10T11:57:31;8.23;;;5.65;;
78290;SDS011;67543;45.494;9.100;2023-05-10T11:59:56;8.80;;;5.00;;
78290;SDS011;67543;45.494;9.100;2023-05-10T12:02:22;5.82;;;4.72;;
78290;SDS011;67543;45.494;9.100;2023-05-10T12:04:47;7.03;;;5.20;;
78290;SDS011;67543;45.494;9.100;2023-05-10T12:07:12;6.97;;;4.53;;
78290;SDS011;67543;45.494;9.100;2023-05-10T12:09:42;6.90;;;5.07;;
78290;SDS011;67543;45.494;9.100;2023-05-10T12:12:08;6.05;;;4.45;;
78290;SDS011;67543;45.494;9.100;2023-05-10T12:14:34;5.43;;;4.70;;
78290;SDS011;67543;45.494;9.100;2023-05-10T12:17:00;5.95;;;4.40;;
78290;SDS011;67543;45.494;9.100;2023-05-10T12:19:25;7.07;;;5.32;;
78290;SDS011;67543;45.494;9.100;2023-05-10T12:21:51;10.07;;;5.57;;
78290;SDS011;67543;45.494;9.100;2023-05-10T12:24:16;8.60;;;4.75;;
78290;SDS011;67543;45.494;9.100;2023-05-10T12:26:43;6.50;;;4.53;;
78290;SDS011;67543;45.494;9.100;2023-05-10T12:34:26;8.93;;;5.25;;
78290;SDS011;67543;45.494;9.100;2023-05-10T12:36:55;5.78;;;4.65;;
78290;SDS011;67543;45.494;9.100;2023-05-10T12:39:20;5.05;;;4.35;;
78290;SDS011;67543;45.494;9.100;2023-05-10T12:41:46;5.13;;;4.38;;
78290;SDS011;67543;45.494;9.100;2023-05-10T12:44:11;6.30;;;4.47;;
78290;SDS011;67543;45.494;9.100;2023-05-10T12:46:37;5.18;;;4.43;;
78290;SDS011;67543;45.494;9.100;2023-05-10T12:49:02;4.85;;;4.35;;
78290;SDS011;67543;45.494;9.100;2023-05-10T12:51:27;5.93;;;4.10;;
78290;SDS011;67543;45.494;9.100;2023-05-10T12:53:53;6.82;;;4.40;;
78290;SDS011;67543;45.494;9.100;2023-05-10T12:56:19;7.40;;;3.88;;
78290;SDS011;67543;45.494;9.100;2023-05-10T12:58:45;6.25;;;4.13;;
78290;SDS011;67543;45.494;9.100;2023-05-10T13:01:13;5.40;;;4.82;;
78290;SDS011;67543;45.494;9.100;2023-05-10T13:03:38;5.60;;;3.83;;
78290;SDS011;67543;45.494;9.100;2023-05-10T13:06:04;5.22;;;3.70;;
78290;SDS011;67543;45.494;9.100;2023-05-10T13:08:30;4.88;;;3.70;;
78290;SDS011;67543;45.494;9.100;2023-05-10T13:10:58;6.65;;;5.75;;
78290;SDS011;67543;45.494;9.100;2023-05-10T13:13:24;5.20;;;4.00;;
78290;SDS011;67543;45.494;9.100;2023-05-10T13:15:49;5.30;;;3.83;;
78290;SDS011;67543;45.494;9.100;2023-05-10T13:18:15;5.35;;;3.95;;
78290;SDS011;67543;45.494;9.100;2023-05-10T13:20:40;5.88;;;4.22;;
78290;SDS011;67543;45.494;9.100;2023-05-10T13:23:05;6.20;;;4.80;;
78290;SDS011;67543;45.494;9.100;2023-05-10T13:25:31;5.32;;;4.32;;
78290;SDS011;67543;45.494;9.100;2023-05-10T13:27:56;5.25;;;4.20;;
78290;SDS011;67543;45.494;9.100;2023-05-10T13:30:22;5.22;;;4.72;;
78290;SDS011;67543;45.494;9.100;2023-05-10T13:32:48;5.10;;;3.97;;
78290;SDS011;67543;45.494;9.100;2023-05-10T13:35:14;5.13;;;3.45;;
78290;SDS011;67543;45.494;9.100;2023-05-10T13:37:39;7.32;;;4.50;;
78290;SDS011;67543;45.494;9.100;2023-05-10T13:40:05;5.47;;;4.38;;
78290;SDS011;67543;45.494;9.100;2023-05-10T13:42:31;6.53;;;4.22;;
78290;SDS011;67543;45.494;9.100;2023-05-10T13:44:58;6.30;;;3.90;;
78290;SDS011;67543;45.494;9.100;2023-05-10T13:47:23;5.43;;;3.45;;
78290;SDS011;67543;45.494;9.100;2023-05-10T13:49:49;5.35;;;4.07;;
78290;SDS011;67543;45.494;9.100;2023-05-10T13:52:14;4.50;;;3.53;;
78290;SDS011;67543;45.494;9.100;2023-05-10T13:54:40;5.82;;;3.97;;
78290;SDS011;67543;45.494;9.100;2023-05-10T13:57:05;5.93;;;3.50;;
78290;SDS011;67543;45.494;9.100;2023-05-10T13:59:31;4.97;;;3.25;;
78290;SDS011;67543;45.494;9.100;2023-05-10T14:01:57;4.68;;;3.25;;
78290;SDS011;67543;45.494;9.100;2023-05-10T14:04:23;4.32;;;3.35;;
78290;SDS011;67543;45.494;9.100;2023-05-10T14:06:48;5.25;;;3.50;;
78290;SDS011;67543;45.494;9.100;2023-05-10T14:09:14;4.70;;;3.47;;
78290;SDS011;67543;45.494;9.100;2023-05-10T14:11:39;4.93;;;3.50;;
78290;SDS011;67543;45.494;9.100;2023-05-10T14:14:08;4.40;;;3.30;;
78290;SDS011;67543;45.494;9.100;2023-05-10T14:16:33;5.60;;;3.30;;
78290;SDS011;67543;45.494;9.100;2023-05-10T14:18:59;4.47;;;3.10;;
78290;SDS011;67543;45.494;9.100;2023-05-10T14:21:24;3.88;;;3.13;;
78290;SDS011;67543;45.494;9.100;2023-05-10T14:23:50;4.15;;;3.10;;
78290;SDS011;67543;45.494;9.100;2023-05-10T14:26:15;4.35;;;3.13;;
78290;SDS011;67543;45.494;9.100;2023-05-10T14:28:41;3.88;;;3.03;;
78290;SDS011;67543;45.494;9.100;2023-05-10T14:31:06;3.67;;;2.72;;
78290;SDS011;67543;45.494;9.100;2023-05-10T14:33:31;4.47;;;3.22;;
78290;SDS011;67543;45.494;9.100;2023-05-10T14:35:57;4.32;;;3.58;;
78290;SDS011;67543;45.494;9.100;2023-05-10T14:38:22;4.20;;;3.67;;
78290;SDS011;67543;45.494;9.100;2023-05-10T14:40:48;5.70;;;3.42;;
78290;SDS011;67543;45.494;9.100;2023-05-10T14:43:14;5.57;;;5.05;;
78290;SDS011;67543;45.494;9.100;2023-05-10T14:45:39;5.43;;;4.13;;
78290;SDS011;67543;45.494;9.100;2023-05-10T14:48:05;5.03;;;3.92;;
78290;SDS011;67543;45.494;9.100;2023-05-10T14:50:30;6.15;;;4.35;;
78290;SDS011;67543;45.494;9.100;2023-05-10T14:52:56;4.30;;;3.72;;
78290;SDS011;67543;45.494;9.100;2023-05-10T14:55:22;3.40;;;3.08;;
78290;SDS011;67543;45.494;9.100;2023-05-10T14:57:47;4.47;;;3.78;;
78290;SDS011;67543;45.494;9.100;2023-05-10T15:00:14;4.65;;;3.92;;
78290;SDS011;67543;45.494;9.100;2023-05-10T15:02:40;4.45;;;4.03;;
78290;SDS011;67543;45.494;9.100;2023-05-10T15:05:06;5.20;;;3.38;;
78290;SDS011;67543;45.494;9.100;2023-05-10T15:07:32;5.70;;;3.92;;
78290;SDS011;67543;45.494;9.100;2023-05-10T15:09:57;4.68;;;4.07;;
78290;SDS011;67543;45.494;9.100;2023-05-10T15:12:22;4.40;;;3.75;;
78290;SDS011;67543;45.494;9.100;2023-05-10T15:14:48;5.53;;;4.32;;
78290;SDS011;67543;45.494;9.100;2023-05-10T15:17:13;6.47;;;3.80;;
78290;SDS011;67543;45.494;9.100;2023-05-10T15:19:41;4.75;;;3.85;;
78290;SDS011;67543;45.494;9.100;2023-05-10T15:22:07;4.88;;;3.80;;
78290;SDS011;67543;45.494;9.100;2023-05-10T15:24:32;4.80;;;3.80;;
78290;SDS011;67543;45.494;9.100;2023-05-10T15:26:57;4.90;;;3.75;;
78290;SDS011;67543;45.494;9.100;2023-05-10T15:29:23;4.20;;;3.72;;
78290;SDS011;67543;45.494;9.100;2023-05-10T15:31:48;4.55;;;3.97;;
78290;SDS011;67543;45.494;9.100;2023-05-10T15:34:15;6.90;;;4.47;;
78290;SDS011;67543;45.494;9.100;2023-05-10T15:36:40;5.72;;;5.00;;
78290;SDS011;67543;45.494;9.100;2023-05-10T15:39:06;5.70;;;4.25;;
78290;SDS011;67543;45.494;9.100;2023-05-10T15:41:31;5.65;;;4.55;;
78290;SDS011;67543;45.494;9.100;2023-05-10T15:43:57;5.95;;;5.15;;
78290;SDS011;67543;45.494;9.100;2023-05-10T15:46:24;4.47;;;3.80;;
78290;SDS011;67543;45.494;9.100;2023-05-10T15:48:50;4.55;;;3.78;;
78290;SDS011;67543;45.494;9.100;2023-05-10T15:51:15;6.20;;;4.40;;
78290;SDS011;67543;45.494;9.100;2023-05-10T15:53:40;4.70;;;3.70;;
78290;SDS011;67543;45.494;9.100;2023-05-10T15:56:06;5.07;;;4.15;;
78290;SDS011;67543;45.494;9.100;2023-05-10T15:58:31;5.63;;;3.63;;
78290;SDS011;67543;45.494;9.100;2023-05-10T16:00:57;4.90;;;3.78;;
78290;SDS011;67543;45.494;9.100;2023-05-10T16:03:22;4.47;;;3.25;;
78290;SDS011;67543;45.494;9.100;2023-05-10T16:05:48;5.07;;;3.50;;
78290;SDS011;67543;45.494;9.100;2023-05-10T16:08:13;6.10;;;3.67;;
78290;SDS011;67543;45.494;9.100;2023-05-10T16:10:38;5.43;;;3.25;;
78290;SDS011;67543;45.494;9.100;2023-05-10T16:13:04;4.75;;;3.55;;
78290;SDS011;67543;45.494;9.100;2023-05-10T16:15:30;3.40;;;2.95;;
78290;SDS011;67543;45.494;9.100;2023-05-10T16:17:55;4.53;;;3.42;;
78290;SDS011;67543;45.494;9.100;2023-05-10T16:20:21;3.45;;;3.13;;
78290;SDS011;67543;45.494;9.100;2023-05-10T16:22:47;5.93;;;4.05;;
78290;SDS011;67543;45.494;9.100;2023-05-10T16:25:12;4.10;;;3.25;;
78290;SDS011;67543;45.494;9.100;2023-05-10T16:27:37;6.38;;;3.88;;
78290;SDS011;67543;45.494;9.100;2023-05-10T16:30:03;5.15;;;3.22;;
78290;SDS011;67543;45.494;9.100;2023-05-10T16:32:29;4.25;;;2.70;;
78290;SDS011;67543;45.494;9.100;2023-05-10T16:34:54;4.27;;;3.10;;
78290;SDS011;67543;45.494;9.100;2023-05-10T16:37:19;2.83;;;2.28;;
78290;SDS011;67543;45.494;9.100;2023-05-10T16:39:45;4.95;;;3.10;;
78290;SDS011;67543;45.494;9.100;2023-05-10T16:42:10;4.55;;;3.42;;
78290;SDS011;67543;45.494;9.100;2023-05-10T16:44:35;5.70;;;3.67;;
78290;SDS011;67543;45.494;9.100;2023-05-10T16:47:01;4.83;;;3.37;;
78290;SDS011;67543;45.494;9.100;2023-05-10T16:49:27;4.47;;;3.67;;
78290;SDS011;67543;45.494;9.100;2023-05-10T16:51:52;4.03;;;3.53;;
78290;SDS011;67543;45.494;9.100;2023-05-10T16:54:18;5.65;;;3.17;;
78290;SDS011;67543;45.494;9.100;2023-05-10T16:56:44;4.72;;;3.33;;
78290;SDS011;67543;45.494;9.100;2023-05-10T16:59:10;6.07;;;3.63;;
78290;SDS011;67543;45.494;9.100;2023-05-10T17:01:35;4.25;;;3.47;;
78290;SDS011;67543;45.494;9.100;2023-05-10T17:04:00;4.97;;;3.90;;
78290;SDS011;67543;45.494;9.100;2023-05-10T17:06:26;5.22;;;4.07;;
78290;SDS011;67543;45.494;9.100;2023-05-10T17:08:51;5.43;;;3.70;;
78290;SDS011;67543;45.494;9.100;2023-05-10T17:11:17;5.50;;;4.25;;
78290;SDS011;67543;45.494;9.100;2023-05-10T17:13:43;5.25;;;3.75;;
78290;SDS011;67543;45.494;9.100;2023-05-10T17:16:09;6.75;;;4.80;;
78290;SDS011;67543;45.494;9.100;2023-05-10T17:18:34;5.45;;;3.88;;
78290;SDS011;67543;45.494;9.100;2023-05-10T17:21:00;5.18;;;3.60;;
78290;SDS011;67543;45.494;9.100;2023-05-10T17:23:25;5.72;;;3.33;;
78290;SDS011;67543;45.494;9.100;2023-05-10T17:25:51;4.65;;;4.00;;
78290;SDS011;67543;45.494;9.100;2023-05-10T17:28:16;5.53;;;4.13;;
78290;SDS011;67543;45.494;9.100;2023-05-10T17:30:41;6.93;;;3.95;;
78290;SDS011;67543;45.494;9.100;2023-05-10T17:33:07;7.13;;;4.38;;
78290;SDS011;67543;45.494;9.100;2023-05-10T17:35:32;7.03;;;4.05;;
78290;SDS011;67543;45.494;9.100;2023-05-10T17:37:58;6.15;;;3.97;;
78290;SDS011;67543;45.494;9.100;2023-05-10T17:40:23;6.30;;;4.97;;
78290;SDS011;67543;45.494;9.100;2023-05-10T17:42:49;6.53;;;4.80;;
78290;SDS011;67543;45.494;9.100;2023-05-10T17:45:14;5.57;;;4.10;;
78290;SDS011;67543;45.494;9.100;2023-05-10T17:47:40;5.50;;;3.97;;
78290;SDS011;67543;45.494;9.100;2023-05-10T17:50:05;7.38;;;4.57;;
78290;SDS011;67543;45.494;9.100;2023-05-10T17:52:31;7.40;;;3.88;;
78290;SDS011;67543;45.494;9.100;2023-05-10T17:54:56;7.35;;;4.95;;
78290;SDS011;67543;45.494;9.100;2023-05-10T17:57:22;4.82;;;3.78;;
78290;SDS011;67543;45.494;9.100;2023-05-10T17:59:48;5.07;;;4.10;;
78290;SDS011;67543;45.494;9.100;2023-05-10T18:02:14;5.47;;;4.07;;
78290;SDS011;67543;45.494;9.100;2023-05-10T18:04:39;5.57;;;4.32;;
78290;SDS011;67543;45.494;9.100;2023-05-10T18:07:05;5.10;;;3.63;;
78290;SDS011;67543;45.494;9.100;2023-05-10T18:09:30;5.53;;;4.13;;
78290;SDS011;67543;45.494;9.100;2023-05-10T18:11:58;5.88;;;4.53;;
78290;SDS011;67543;45.494;9.100;2023-05-10T18:14:23;6.22;;;4.65;;
78290;SDS011;67543;45.494;9.100;2023-05-10T18:16:52;9.05;;;4.78;;
78290;SDS011;67543;45.494;9.100;2023-05-10T18:19:20;6.35;;;5.00;;
78290;SDS011;67543;45.494;9.100;2023-05-10T18:21:47;6.28;;;4.80;;
78290;SDS011;67543;45.494;9.100;2023-05-10T18:24:12;6.05;;;4.45;;
78290;SDS011;67543;45.494;9.100;2023-05-10T18:26:38;5.53;;;4.40;;
78290;SDS011;67543;45.494;9.100;2023-05-10T18:29:04;5.13;;;4.00;;
78290;SDS011;67543;45.494;9.100;2023-05-10T18:31:29;5.47;;;3.90;;
78290;SDS011;67543;45.494;9.100;2023-05-10T18:33:55;7.70;;;4.72;;
78290;SDS011;67543;45.494;9.100;2023-05-10T18:36:21;5.65;;;4.18;;
78290;SDS011;67543;45.494;9.100;2023-05-10T18:38:47;6.45;;;3.55;;
78290;SDS011;67543;45.494;9.100;2023-05-10T18:41:12;5.80;;;3.67;;
78290;SDS011;67543;45.494;9.100;2023-05-10T18:43:38;12.85;;;5.43;;
78290;SDS011;67543;45.494;9.100;2023-05-10T18:46:03;7.43;;;5.32;;
78290;SDS011;67543;45.494;9.100;2023-05-10T18:48:29;8.55;;;4.90;;
78290;SDS011;67543;45.494;9.100;2023-05-10T18:50:54;5.30;;;3.80;;
78290;SDS011;67543;45.494;9.100;2023-05-10T18:53:20;5.27;;;4.10;;
78290;SDS011;67543;45.494;9.100;2023-05-10T18:55:45;4.50;;;4.10;;
78290;SDS011;67543;45.494;9.100;2023-05-10T18:58:10;4.55;;;3.40;;
78290;SDS011;67543;45.494;9.100;2023-05-10T19:00:36;6.00;;;3.45;;
78290;SDS011;67543;45.494;9.100;2023-05-10T19:03:01;4.90;;;3.40;;
78290;SDS011;67543;45.494;9.100;2023-05-10T19:05:26;4.90;;;3.40;;
78290;SDS011;67543;45.494;9.100;2023-05-10T19:07:54;4.32;;;3.30;;
78290;SDS011;67543;45.494;9.100;2023-05-10T19:10:20;5.45;;;3.42;;
78290;SDS011;67543;45.494;9.100;2023-05-10T19:12:45;4.60;;;3.58;;
78290;SDS011;67543;45.494;9.100;2023-05-10T19:15:11;5.22;;;3.67;;
78290;SDS011;67543;45.494;9.100;2023-05-10T19:17:37;4.07;;;3.25;;
78290;SDS011;67543;45.494;9.100;2023-05-10T19:20:03;6.03;;;4.32;;
78290;SDS011;67543;45.494;9.100;2023-05-10T19:22:32;6.72;;;4.22;;
78290;SDS011;67543;45.494;9.100;2023-05-10T19:24:57;8.38;;;4.40;;
78290;SDS011;67543;45.494;9.100;2023-05-10T19:27:23;6.05;;;4.10;;
78290;SDS011;67543;45.494;9.100;2023-05-10T19:29:48;6.32;;;4.38;;
78290;SDS011;67543;45.494;9.100;2023-05-10T19:32:13;5.30;;;4.00;;
78290;SDS011;67543;45.494;9.100;2023-05-10T19:34:39;6.15;;;3.90;;
78290;SDS011;67543;45.494;9.100;2023-05-10T19:37:04;6.50;;;4.05;;
78290;SDS011;67543;45.494;9.100;2023-05-10T19:39:29;7.82;;;4.75;;
78290;SDS011;67543;45.494;9.100;2023-05-10T19:41:56;8.18;;;4.65;;
78290;SDS011;67543;45.494;9.100;2023-05-10T19:44:21;5.85;;;4.53;;
78290;SDS011;67543;45.494;9.100;2023-05-10T19:46:47;5.90;;;4.40;;
78290;SDS011;67543;45.494;9.100;2023-05-10T19:49:12;5.10;;;4.30;;
78290;SDS011;67543;45.494;9.100;2023-05-10T19:51:38;6.32;;;4.55;;
78290;SDS011;67543;45.494;9.100;2023-05-10T19:54:03;7.50;;;4.80;;
78290;SDS011;67543;45.494;9.100;2023-05-10T19:56:28;7.88;;;5.38;;
78290;SDS011;67543;45.494;9.100;2023-05-10T19:58:54;5.93;;;4.82;;
78290;SDS011;67543;45.494;9.100;2023-05-10T20:01:19;7.20;;;4.93;;
78290;SDS011;67543;45.494;9.100;2023-05-10T20:03:45;6.70;;;5.80;;
78290;SDS011;67543;45.494;9.100;2023-05-10T20:06:10;6.57;;;4.78;;
78290;SDS011;67543;45.494;9.100;2023-05-10T20:08:36;7.88;;;5.13;;
78290;SDS011;67543;45.494;9.100;2023-05-10T20:11:01;7.00;;;5.05;;
78290;SDS011;67543;45.494;9.100;2023-05-10T20:13:27;7.88;;;5.45;;
78290;SDS011;67543;45.494;9.100;2023-05-10T20:15:56;7.05;;;5.18;;
78290;SDS011;67543;45.494;9.100;2023-05-10T20:18:23;8.60;;;5.20;;
78290;SDS011;67543;45.494;9.100;2023-05-10T20:20:53;6.63;;;5.07;;
78290;SDS011;67543;45.494;9.100;2023-05-10T20:23:22;10.38;;;6.72;;
78290;SDS011;67543;45.494;9.100;2023-05-10T20:25:47;7.53;;;5.20;;
78290;SDS011;67543;45.494;9.100;2023-05-10T20:28:13;7.88;;;5.68;;
78290;SDS011;67543;45.494;9.100;2023-05-10T20:30:38;9.95;;;5.82;;
78290;SDS011;67543;45.494;9.100;2023-05-10T20:33:04;8.15;;;5.57;;
78290;SDS011;67543;45.494;9.100;2023-05-10T20:35:30;8.10;;;6.35;;